sensor_id;sensor_type;location;lat;lon;timestamp;P1;durP1;ratioP1;P2;durP2;ratioP2
55362;SDS011;41244;49.242;9.060;2023-07-28T00:01:36;6.18;;;4.97;;
55362;SDS011;41244;49.242;9.060;2023-07-28T00:04:01;8.35;;;4.85;;
55362;SDS011;41244;49.242;9.060;2023-07-28T00:06:32;6.82;;;4.20;;
55362;SDS011;41244;49.242;9.060;2023-07-28T00:08:58;5.10;;;4.60;;
55362;SDS011;41244;49.242;9.060;2023-07-28T00:11:24;5.97;;;4.93;;
55362;SDS011;41244;49.242;9.060;2023-07-28T00:13:49;5.32;;;4.82;;
55362;SDS011;41244;49.242;9.060;2023-07-28T00:16:15;5.00;;;4.50;;
55362;SDS011;41244;49.242;9.060;2023-07-28T00:18:41;7.05;;;4.65;;
55362;SDS011;41244;49.242;9.060;2023-07-28T00:21:07;5.13;;;4.65;;
55362;SDS011;41244;49.242;9.060;2023-07-28T00:23:32;5.40;;;4.90;;
55362;SDS011;41244;49.242;9.060;2023-07-28T00:25:58;6.15;;;4.88;;
55362;SDS011;41244;49.242;9.060;2023-07-28T00:28:24;5.13;;;4.63;;
55362;SDS011;41244;49.242;9.060;2023-07-28T00:30:50;6.53;;;5.25;;
55362;SDS011;41244;49.242;9.060;2023-07-28T00:33:16;5.40;;;4.90;;
55362;SDS011;41244;49.242;9.060;2023-07-28T00:35:42;7.72;;;5.35;;
55362;SDS011;41244;49.242;9.060;2023-07-28T00:38:08;5.97;;;5.15;;
55362;SDS011;41244;49.242;9.060;2023-07-28T00:40:37;6.55;;;5.20;;
55362;SDS011;41244;49.242;9.060;2023-07-28T00:43:03;6.68;;;5.22;;
55362;SDS011;41244;49.242;9.060;2023-07-28T00:45:29;8.32;;;5.35;;
55362;SDS011;41244;49.242;9.060;2023-07-28T00:47:56;6.75;;;6.10;;
55362;SDS011;41244;49.242;9.060;2023-07-28T00:50:23;7.35;;;5.53;;
55362;SDS011;41244;49.242;9.060;2023-07-28T00:52:49;8.32;;;5.50;;
55362;SDS011;41244;49.242;9.060;2023-07-28T00:55:15;7.47;;;5.85;;
55362;SDS011;41244;49.242;9.060;2023-07-28T00:57:41;5.85;;;5.25;;
55362;SDS011;41244;49.242;9.060;2023-07-28T01:00:07;6.35;;;5.70;;
55362;SDS011;41244;49.242;9.060;2023-07-28T01:02:34;8.52;;;6.05;;
55362;SDS011;41244;49.242;9.060;2023-07-28T01:05:01;6.20;;;5.60;;
55362;SDS011;41244;49.242;9.060;2023-07-28T01:08:11;5.97;;;5.47;;
55362;SDS011;41244;49.242;9.060;2023-07-28T01:10:24;6.25;;;5.65;;
55362;SDS011;41244;49.242;9.060;2023-07-28T01:12:53;6.40;;;5.80;;
55362;SDS011;41244;49.242;9.060;2023-07-28T01:15:19;6.20;;;5.60;;
55362;SDS011;41244;49.242;9.060;2023-07-28T01:17:45;6.13;;;5.25;;
55362;SDS011;41244;49.242;9.060;2023-07-28T01:20:10;7.70;;;5.55;;
55362;SDS011;41244;49.242;9.060;2023-07-28T01:28:40;7.18;;;6.30;;
55362;SDS011;41244;49.242;9.060;2023-07-28T01:31:07;9.18;;;5.57;;
55362;SDS011;41244;49.242;9.060;2023-07-28T01:33:33;8.05;;;5.57;;
55362;SDS011;41244;49.242;9.060;2023-07-28T01:35:59;7.55;;;5.68;;
55362;SDS011;41244;49.242;9.060;2023-07-28T01:38:26;6.03;;;5.47;;
55362;SDS011;41244;49.242;9.060;2023-07-28T01:40:53;7.97;;;5.47;;
55362;SDS011;41244;49.242;9.060;2023-07-28T01:43:18;6.18;;;5.57;;
55362;SDS011;41244;49.242;9.060;2023-07-28T01:45:44;5.90;;;5.30;;
55362;SDS011;41244;49.242;9.060;2023-07-28T01:48:10;7.30;;;4.97;;
55362;SDS011;41244;49.242;9.060;2023-07-28T01:50:36;7.22;;;5.57;;
55362;SDS011;41244;49.242;9.060;2023-07-28T01:53:03;6.93;;;5.63;;
55362;SDS011;41244;49.242;9.060;2023-07-28T01:55:30;6.00;;;5.35;;
55362;SDS011;41244;49.242;9.060;2023-07-28T01:58:00;6.20;;;5.50;;
55362;SDS011;41244;49.242;9.060;2023-07-28T02:00:26;5.90;;;5.28;;
55362;SDS011;41244;49.242;9.060;2023-07-28T02:02:53;10.05;;;5.85;;
55362;SDS011;41244;49.242;9.060;2023-07-28T02:05:19;6.88;;;5.35;;
55362;SDS011;41244;49.242;9.060;2023-07-28T02:07:45;8.07;;;5.55;;
55362;SDS011;41244;49.242;9.060;2023-07-28T02:10:11;5.60;;;5.00;;
55362;SDS011;41244;49.242;9.060;2023-07-28T02:12:37;7.20;;;5.28;;
55362;SDS011;41244;49.242;9.060;2023-07-28T02:15:04;5.63;;;5.13;;
55362;SDS011;41244;49.242;9.060;2023-07-28T02:17:31;5.80;;;5.20;;
55362;SDS011;41244;49.242;9.060;2023-07-28T02:19:57;7.32;;;5.25;;
55362;SDS011;41244;49.242;9.060;2023-07-28T02:22:22;7.10;;;5.75;;
55362;SDS011;41244;49.242;9.060;2023-07-28T02:24:48;9.23;;;6.00;;
55362;SDS011;41244;49.242;9.060;2023-07-28T02:27:14;9.73;;;5.80;;
55362;SDS011;41244;49.242;9.060;2023-07-28T02:29:40;8.05;;;5.60;;
55362;SDS011;41244;49.242;9.060;2023-07-28T02:32:07;8.43;;;5.82;;
55362;SDS011;41244;49.242;9.060;2023-07-28T02:34:33;6.22;;;5.63;;
55362;SDS011;41244;49.242;9.060;2023-07-28T02:36:58;6.35;;;5.72;;
55362;SDS011;41244;49.242;9.060;2023-07-28T02:39:24;8.13;;;5.70;;
55362;SDS011;41244;49.242;9.060;2023-07-28T02:41:50;8.25;;;5.90;;
55362;SDS011;41244;49.242;9.060;2023-07-28T02:44:16;9.27;;;6.28;;
55362;SDS011;41244;49.242;9.060;2023-07-28T02:46:41;8.45;;;5.82;;
55362;SDS011;41244;49.242;9.060;2023-07-28T02:49:07;7.95;;;6.05;;
55362;SDS011;41244;49.242;9.060;2023-07-28T02:51:33;7.72;;;5.70;;
55362;SDS011;41244;49.242;9.060;2023-07-28T02:53:59;6.53;;;5.18;;
55362;SDS011;41244;49.242;9.060;2023-07-28T02:56:28;7.10;;;5.75;;
55362;SDS011;41244;49.242;9.060;2023-07-28T02:58:54;8.48;;;5.90;;
55362;SDS011;41244;49.242;9.060;2023-07-28T03:01:20;7.68;;;5.43;;
55362;SDS011;41244;49.242;9.060;2023-07-28T03:03:46;9.48;;;5.60;;
55362;SDS011;41244;49.242;9.060;2023-07-28T03:06:12;8.77;;;6.63;;
55362;SDS011;41244;49.242;9.060;2023-07-28T03:08:38;7.35;;;5.80;;
55362;SDS011;41244;49.242;9.060;2023-07-28T03:11:04;7.57;;;5.85;;
55362;SDS011;41244;49.242;9.060;2023-07-28T03:13:29;7.93;;;5.63;;
55362;SDS011;41244;49.242;9.060;2023-07-28T03:15:55;7.32;;;5.47;;
55362;SDS011;41244;49.242;9.060;2023-07-28T03:18:21;7.20;;;5.57;;
55362;SDS011;41244;49.242;9.060;2023-07-28T03:20:46;8.15;;;5.57;;
55362;SDS011;41244;49.242;9.060;2023-07-28T03:23:12;8.77;;;5.90;;
55362;SDS011;41244;49.242;9.060;2023-07-28T03:25:39;8.65;;;5.72;;
55362;SDS011;41244;49.242;9.060;2023-07-28T03:28:04;7.13;;;5.70;;
55362;SDS011;41244;49.242;9.060;2023-07-28T03:30:30;9.48;;;5.93;;
55362;SDS011;41244;49.242;9.060;2023-07-28T03:32:56;7.53;;;5.30;;
55362;SDS011;41244;49.242;9.060;2023-07-28T03:35:22;7.45;;;6.15;;
55362;SDS011;41244;49.242;9.060;2023-07-28T03:37:48;8.18;;;5.60;;
55362;SDS011;41244;49.242;9.060;2023-07-28T03:40:13;7.20;;;5.68;;
55362;SDS011;41244;49.242;9.060;2023-07-28T03:42:39;9.13;;;6.45;;
55362;SDS011;41244;49.242;9.060;2023-07-28T03:45:05;8.43;;;6.03;;
55362;SDS011;41244;49.242;9.060;2023-07-28T03:47:32;6.78;;;6.07;;
55362;SDS011;41244;49.242;9.060;2023-07-28T03:49:57;8.48;;;5.63;;
55362;SDS011;41244;49.242;9.060;2023-07-28T03:52:23;7.13;;;5.25;;
55362;SDS011;41244;49.242;9.060;2023-07-28T03:54:49;6.78;;;5.47;;
55362;SDS011;41244;49.242;9.060;2023-07-28T03:57:15;8.88;;;5.78;;
55362;SDS011;41244;49.242;9.060;2023-07-28T03:59:40;6.43;;;5.78;;
55362;SDS011;41244;49.242;9.060;2023-07-28T04:02:06;6.70;;;5.38;;
55362;SDS011;41244;49.242;9.060;2023-07-28T04:04:32;6.57;;;5.93;;
55362;SDS011;41244;49.242;9.060;2023-07-28T04:06:58;6.35;;;5.18;;
55362;SDS011;41244;49.242;9.060;2023-07-28T04:09:23;6.55;;;4.90;;
55362;SDS011;41244;49.242;9.060;2023-07-28T04:11:49;6.47;;;5.75;;
55362;SDS011;41244;49.242;9.060;2023-07-28T04:14:15;7.32;;;5.15;;
55362;SDS011;41244;49.242;9.060;2023-07-28T04:16:41;6.57;;;5.13;;
55362;SDS011;41244;49.242;9.060;2023-07-28T04:19:06;6.97;;;5.32;;
55362;SDS011;41244;49.242;9.060;2023-07-28T04:21:32;8.23;;;5.55;;
55362;SDS011;41244;49.242;9.060;2023-07-28T04:23:58;6.68;;;5.75;;
55362;SDS011;41244;49.242;9.060;2023-07-28T04:26:24;7.95;;;5.72;;
55362;SDS011;41244;49.242;9.060;2023-07-28T04:28:50;6.85;;;5.60;;
55362;SDS011;41244;49.242;9.060;2023-07-28T04:31:16;5.50;;;5.00;;
55362;SDS011;41244;49.242;9.060;2023-07-28T04:33:42;6.00;;;5.43;;
55362;SDS011;41244;49.242;9.060;2023-07-28T04:36:08;7.13;;;5.50;;
55362;SDS011;41244;49.242;9.060;2023-07-28T04:38:34;7.32;;;5.30;;
55362;SDS011;41244;49.242;9.060;2023-07-28T04:40:59;10.13;;;5.75;;
55362;SDS011;41244;49.242;9.060;2023-07-28T04:43:25;7.30;;;5.80;;
55362;SDS011;41244;49.242;9.060;2023-07-28T04:45:51;8.52;;;5.63;;
55362;SDS011;41244;49.242;9.060;2023-07-28T04:48:17;8.40;;;5.57;;
55362;SDS011;41244;49.242;9.060;2023-07-28T04:50:44;6.75;;;5.30;;
55362;SDS011;41244;49.242;9.060;2023-07-28T04:53:10;7.22;;;5.63;;
55362;SDS011;41244;49.242;9.060;2023-07-28T04:55:35;7.32;;;5.50;;
55362;SDS011;41244;49.242;9.060;2023-07-28T04:58:01;6.60;;;5.88;;
55362;SDS011;41244;49.242;9.060;2023-07-28T05:00:27;6.28;;;5.10;;
55362;SDS011;41244;49.242;9.060;2023-07-28T05:02:53;6.13;;;5.53;;
55362;SDS011;41244;49.242;9.060;2023-07-28T05:05:19;7.60;;;5.95;;
55362;SDS011;41244;49.242;9.060;2023-07-28T05:07:45;5.95;;;5.38;;
55362;SDS011;41244;49.242;9.060;2023-07-28T05:10:10;8.23;;;5.55;;
55362;SDS011;41244;49.242;9.060;2023-07-28T05:12:36;6.65;;;5.75;;
55362;SDS011;41244;49.242;9.060;2023-07-28T05:15:02;7.25;;;5.30;;
55362;SDS011;41244;49.242;9.060;2023-07-28T05:17:29;8.50;;;6.00;;
55362;SDS011;41244;49.242;9.060;2023-07-28T05:19:55;6.57;;;5.53;;
55362;SDS011;41244;49.242;9.060;2023-07-28T05:22:20;8.40;;;5.80;;
55362;SDS011;41244;49.242;9.060;2023-07-28T05:24:46;8.07;;;5.47;;
55362;SDS011;41244;49.242;9.060;2023-07-28T05:27:12;8.23;;;5.40;;
55362;SDS011;41244;49.242;9.060;2023-07-28T05:29:38;6.80;;;5.05;;
55362;SDS011;41244;49.242;9.060;2023-07-28T05:32:04;6.43;;;5.05;;
55362;SDS011;41244;49.242;9.060;2023-07-28T05:34:30;6.97;;;6.28;;
55362;SDS011;41244;49.242;9.060;2023-07-28T05:36:56;6.25;;;5.60;;
55362;SDS011;41244;49.242;9.060;2023-07-28T05:39:22;6.70;;;6.00;;
55362;SDS011;41244;49.242;9.060;2023-07-28T05:41:48;37.10;;;25.80;;
55362;SDS011;41244;49.242;9.060;2023-07-28T05:44:13;32.83;;;22.38;;
55362;SDS011;41244;49.242;9.060;2023-07-28T05:46:39;12.63;;;10.77;;
55362;SDS011;41244;49.242;9.060;2023-07-28T05:49:05;14.93;;;12.70;;
55362;SDS011;41244;49.242;9.060;2023-07-28T05:51:31;8.30;;;5.63;;
55362;SDS011;41244;49.242;9.060;2023-07-28T05:53:57;7.78;;;5.53;;
55362;SDS011;41244;49.242;9.060;2023-07-28T05:56:23;7.63;;;5.90;;
55362;SDS011;41244;49.242;9.060;2023-07-28T05:58:49;7.13;;;6.10;;
55362;SDS011;41244;49.242;9.060;2023-07-28T06:01:15;7.13;;;6.15;;
55362;SDS011;41244;49.242;9.060;2023-07-28T06:03:42;8.68;;;5.97;;
55362;SDS011;41244;49.242;9.060;2023-07-28T06:06:07;6.40;;;5.53;;
55362;SDS011;41244;49.242;9.060;2023-07-28T06:08:34;7.20;;;6.47;;
55362;SDS011;41244;49.242;9.060;2023-07-28T06:11:00;8.25;;;5.88;;
55362;SDS011;41244;49.242;9.060;2023-07-28T06:13:30;6.88;;;6.18;;
55362;SDS011;41244;49.242;9.060;2023-07-28T06:15:56;11.77;;;9.20;;
55362;SDS011;41244;49.242;9.060;2023-07-28T06:18:23;6.85;;;6.05;;
55362;SDS011;41244;49.242;9.060;2023-07-28T06:20:49;7.07;;;6.07;;
55362;SDS011;41244;49.242;9.060;2023-07-28T06:23:15;11.88;;;8.25;;
55362;SDS011;41244;49.242;9.060;2023-07-28T06:25:41;11.27;;;8.05;;
55362;SDS011;41244;49.242;9.060;2023-07-28T06:28:11;5.80;;;5.10;;
55362;SDS011;41244;49.242;9.060;2023-07-28T06:30:37;6.93;;;5.45;;
55362;SDS011;41244;49.242;9.060;2023-07-28T06:33:05;6.15;;;5.30;;
55362;SDS011;41244;49.242;9.060;2023-07-28T06:35:31;6.13;;;4.70;;
55362;SDS011;41244;49.242;9.060;2023-07-28T06:37:59;6.75;;;5.00;;
55362;SDS011;41244;49.242;9.060;2023-07-28T06:40:25;5.80;;;4.63;;
55362;SDS011;41244;49.242;9.060;2023-07-28T06:42:51;5.65;;;4.80;;
55362;SDS011;41244;49.242;9.060;2023-07-28T06:45:17;5.50;;;4.65;;
55362;SDS011;41244;49.242;9.060;2023-07-28T06:47:43;5.70;;;4.53;;
55362;SDS011;41244;49.242;9.060;2023-07-28T06:50:10;6.65;;;4.47;;
55362;SDS011;41244;49.242;9.060;2023-07-28T06:52:36;6.50;;;4.70;;
55362;SDS011;41244;49.242;9.060;2023-07-28T06:55:02;5.75;;;5.20;;
55362;SDS011;41244;49.242;9.060;2023-07-28T06:57:28;6.85;;;4.63;;
55362;SDS011;41244;49.242;9.060;2023-07-28T06:59:55;4.95;;;4.15;;
55362;SDS011;41244;49.242;9.060;2023-07-28T07:02:21;4.03;;;3.72;;
55362;SDS011;41244;49.242;9.060;2023-07-28T07:04:47;5.43;;;4.10;;
55362;SDS011;41244;49.242;9.060;2023-07-28T07:07:13;5.30;;;3.97;;
55362;SDS011;41244;49.242;9.060;2023-07-28T07:09:39;4.85;;;4.35;;
55362;SDS011;41244;49.242;9.060;2023-07-28T07:12:06;7.57;;;4.93;;
55362;SDS011;41244;49.242;9.060;2023-07-28T07:14:35;4.82;;;3.88;;
55362;SDS011;41244;49.242;9.060;2023-07-28T07:17:01;5.93;;;3.90;;
55362;SDS011;41244;49.242;9.060;2023-07-28T07:19:27;3.97;;;3.67;;
55362;SDS011;41244;49.242;9.060;2023-07-28T07:21:56;4.57;;;4.10;;
55362;SDS011;41244;49.242;9.060;2023-07-28T07:24:22;5.55;;;4.00;;
55362;SDS011;41244;49.242;9.060;2023-07-28T07:26:48;5.65;;;5.15;;
55362;SDS011;41244;49.242;9.060;2023-07-28T07:29:15;12.02;;;9.98;;
55362;SDS011;41244;49.242;9.060;2023-07-28T07:31:41;7.72;;;6.35;;
55362;SDS011;41244;49.242;9.060;2023-07-28T07:34:07;4.32;;;3.92;;
55362;SDS011;41244;49.242;9.060;2023-07-28T07:36:33;3.90;;;3.50;;
55362;SDS011;41244;49.242;9.060;2023-07-28T07:38:58;3.58;;;3.28;;
55362;SDS011;41244;49.242;9.060;2023-07-28T07:41:24;3.60;;;3.25;;
55362;SDS011;41244;49.242;9.060;2023-07-28T07:43:52;4.97;;;4.15;;
55362;SDS011;41244;49.242;9.060;2023-07-28T07:46:19;3.85;;;3.55;;
55362;SDS011;41244;49.242;9.060;2023-07-28T07:48:45;4.57;;;3.50;;
55362;SDS011;41244;49.242;9.060;2023-07-28T07:51:11;3.83;;;3.53;;
55362;SDS011;41244;49.242;9.060;2023-07-28T07:53:37;3.72;;;3.42;;
55362;SDS011;41244;49.242;9.060;2023-07-28T07:56:03;9.27;;;8.13;;
55362;SDS011;41244;49.242;9.060;2023-07-28T07:58:30;7.60;;;6.78;;
55362;SDS011;41244;49.242;9.060;2023-07-28T08:00:56;3.95;;;3.65;;
55362;SDS011;41244;49.242;9.060;2023-07-28T08:03:21;5.13;;;3.92;;
55362;SDS011;41244;49.242;9.060;2023-07-28T08:05:47;4.50;;;4.10;;
55362;SDS011;41244;49.242;9.060;2023-07-28T08:08:13;5.05;;;4.55;;
55362;SDS011;41244;49.242;9.060;2023-07-28T08:10:42;4.30;;;4.00;;
55362;SDS011;41244;49.242;9.060;2023-07-28T08:13:12;3.50;;;3.20;;
55362;SDS011;41244;49.242;9.060;2023-07-28T08:15:39;4.30;;;3.90;;
55362;SDS011;41244;49.242;9.060;2023-07-28T08:18:05;4.13;;;3.50;;
55362;SDS011;41244;49.242;9.060;2023-07-28T08:20:30;3.70;;;3.40;;
55362;SDS011;41244;49.242;9.060;2023-07-28T08:22:56;3.22;;;3.00;;
55362;SDS011;41244;49.242;9.060;2023-07-28T08:25:22;3.47;;;3.17;;
55362;SDS011;41244;49.242;9.060;2023-07-28T08:27:48;3.90;;;3.10;;
55362;SDS011;41244;49.242;9.060;2023-07-28T08:30:15;3.50;;;3.20;;
55362;SDS011;41244;49.242;9.060;2023-07-28T08:32:41;5.18;;;4.20;;
55362;SDS011;41244;49.242;9.060;2023-07-28T08:35:08;3.30;;;2.95;;
55362;SDS011;41244;49.242;9.060;2023-07-28T08:37:34;3.80;;;3.40;;
55362;SDS011;41244;49.242;9.060;2023-07-28T08:40:00;5.03;;;3.38;;
55362;SDS011;41244;49.242;9.060;2023-07-28T08:42:28;3.92;;;3.40;;
55362;SDS011;41244;49.242;9.060;2023-07-28T08:44:55;3.22;;;2.92;;
55362;SDS011;41244;49.242;9.060;2023-07-28T08:47:21;3.63;;;3.22;;
55362;SDS011;41244;49.242;9.060;2023-07-28T08:49:47;3.60;;;2.92;;
55362;SDS011;41244;49.242;9.060;2023-07-28T08:52:16;3.30;;;3.00;;
55362;SDS011;41244;49.242;9.060;2023-07-28T08:54:42;3.10;;;2.80;;
55362;SDS011;41244;49.242;9.060;2023-07-28T08:57:09;3.80;;;3.40;;
55362;SDS011;41244;49.242;9.060;2023-07-28T08:59:35;3.80;;;3.20;;
55362;SDS011;41244;49.242;9.060;2023-07-28T09:02:03;3.70;;;3.17;;
55362;SDS011;41244;49.242;9.060;2023-07-28T09:04:31;6.40;;;3.38;;
55362;SDS011;41244;49.242;9.060;2023-07-28T09:06:57;3.75;;;3.45;;
55362;SDS011;41244;49.242;9.060;2023-07-28T09:09:23;4.03;;;3.63;;
55362;SDS011;41244;49.242;9.060;2023-07-28T09:11:52;3.45;;;3.15;;
55362;SDS011;41244;49.242;9.060;2023-07-28T09:14:20;3.70;;;3.40;;
55362;SDS011;41244;49.242;9.060;2023-07-28T09:16:48;4.50;;;3.60;;
55362;SDS011;41244;49.242;9.060;2023-07-28T09:19:14;5.95;;;5.38;;
55362;SDS011;41244;49.242;9.060;2023-07-28T09:21:44;4.40;;;3.75;;
55362;SDS011;41244;49.242;9.060;2023-07-28T09:24:12;4.43;;;3.38;;
55362;SDS011;41244;49.242;9.060;2023-07-28T09:29:16;4.63;;;3.72;;
55362;SDS011;41244;49.242;9.060;2023-07-28T09:31:44;4.68;;;3.50;;
55362;SDS011;41244;49.242;9.060;2023-07-28T09:34:23;3.70;;;3.40;;
55362;SDS011;41244;49.242;9.060;2023-07-28T09:36:59;4.50;;;4.10;;
55362;SDS011;41244;49.242;9.060;2023-07-28T09:39:26;4.97;;;3.58;;
55362;SDS011;41244;49.242;9.060;2023-07-28T09:41:53;3.92;;;3.60;;
55362;SDS011;41244;49.242;9.060;2023-07-28T09:44:22;3.92;;;3.42;;
55362;SDS011;41244;49.242;9.060;2023-07-28T09:46:55;4.00;;;3.60;;
55362;SDS011;41244;49.242;9.060;2023-07-28T09:49:28;3.80;;;3.45;;
55362;SDS011;41244;49.242;9.060;2023-07-28T09:52:04;3.95;;;3.65;;
55362;SDS011;41244;49.242;9.060;2023-07-28T09:54:34;5.22;;;3.20;;
55362;SDS011;41244;49.242;9.060;2023-07-28T09:57:08;4.88;;;3.25;;
55362;SDS011;41244;49.242;9.060;2023-07-28T09:59:41;3.45;;;3.15;;
55362;SDS011;41244;49.242;9.060;2023-07-28T10:02:08;3.88;;;3.40;;
55362;SDS011;41244;49.242;9.060;2023-07-28T10:04:34;6.57;;;3.63;;
55362;SDS011;41244;49.242;9.060;2023-07-28T10:07:01;4.00;;;3.60;;
55362;SDS011;41244;49.242;9.060;2023-07-28T10:09:29;3.95;;;3.30;;
55362;SDS011;41244;49.242;9.060;2023-07-28T10:11:56;4.10;;;3.70;;
55362;SDS011;41244;49.242;9.060;2023-07-28T10:14:28;7.68;;;3.53;;
55362;SDS011;41244;49.242;9.060;2023-07-28T10:16:57;5.72;;;3.30;;
55362;SDS011;41244;49.242;9.060;2023-07-28T10:19:26;5.68;;;4.00;;
55362;SDS011;41244;49.242;9.060;2023-07-28T10:21:58;7.38;;;3.60;;
55362;SDS011;41244;49.242;9.060;2023-07-28T10:30:09;6.80;;;3.55;;
55362;SDS011;41244;49.242;9.060;2023-07-28T10:32:38;4.45;;;3.58;;
55362;SDS011;41244;49.242;9.060;2023-07-28T10:35:09;6.75;;;5.30;;
55362;SDS011;41244;49.242;9.060;2023-07-28T10:37:48;3.50;;;3.20;;
55362;SDS011;41244;49.242;9.060;2023-07-28T10:40:25;8.45;;;3.10;;
55362;SDS011;41244;49.242;9.060;2023-07-28T10:42:53;4.57;;;3.00;;
55362;SDS011;41244;49.242;9.060;2023-07-28T10:45:20;3.80;;;3.50;;
55362;SDS011;41244;49.242;9.060;2023-07-28T10:47:48;3.97;;;3.45;;
55362;SDS011;41244;49.242;9.060;2023-07-28T10:50:14;3.92;;;3.53;;
55362;SDS011;41244;49.242;9.060;2023-07-28T10:52:42;3.90;;;3.25;;
55362;SDS011;41244;49.242;9.060;2023-07-28T10:57:48;4.30;;;3.17;;
55362;SDS011;41244;49.242;9.060;2023-07-28T11:00:17;5.65;;;3.35;;
55362;SDS011;41244;49.242;9.060;2023-07-28T11:02:55;3.50;;;3.20;;
55362;SDS011;41244;49.242;9.060;2023-07-28T11:05:21;3.30;;;2.90;;
55362;SDS011;41244;49.242;9.060;2023-07-28T11:07:58;5.43;;;3.10;;
55362;SDS011;41244;49.242;9.060;2023-07-28T11:10:29;6.38;;;3.03;;
55362;SDS011;41244;49.242;9.060;2023-07-28T11:12:57;3.45;;;3.13;;
55362;SDS011;41244;49.242;9.060;2023-07-28T11:15:25;3.85;;;2.80;;
55362;SDS011;41244;49.242;9.060;2023-07-28T11:17:52;4.70;;;2.63;;
55362;SDS011;41244;49.242;9.060;2023-07-28T11:20:19;6.70;;;3.67;;
55362;SDS011;41244;49.242;9.060;2023-07-28T11:22:56;3.95;;;2.90;;
55362;SDS011;41244;49.242;9.060;2023-07-28T11:25:31;5.22;;;3.60;;
55362;SDS011;41244;49.242;9.060;2023-07-28T11:28:00;3.20;;;2.90;;
55362;SDS011;41244;49.242;9.060;2023-07-28T11:30:30;3.17;;;2.80;;
55362;SDS011;41244;49.242;9.060;2023-07-28T11:32:57;3.67;;;2.97;;
55362;SDS011;41244;49.242;9.060;2023-07-28T11:35:23;8.18;;;3.25;;
55362;SDS011;41244;49.242;9.060;2023-07-28T11:37:50;3.63;;;2.90;;
55362;SDS011;41244;49.242;9.060;2023-07-28T11:40:18;3.35;;;2.97;;
55362;SDS011;41244;49.242;9.060;2023-07-28T11:42:50;3.92;;;2.80;;
55362;SDS011;41244;49.242;9.060;2023-07-28T11:45:18;7.43;;;2.93;;
55362;SDS011;41244;49.242;9.060;2023-07-28T11:48:17;4.40;;;3.40;;
55362;SDS011;41244;49.242;9.060;2023-07-28T11:50:40;3.20;;;2.80;;
55362;SDS011;41244;49.242;9.060;2023-07-28T11:53:07;2.53;;;2.33;;
55362;SDS011;41244;49.242;9.060;2023-07-28T11:55:34;3.05;;;2.50;;
55362;SDS011;41244;49.242;9.060;2023-07-28T11:58:01;3.15;;;2.53;;
55362;SDS011;41244;49.242;9.060;2023-07-28T12:00:34;4.90;;;2.38;;
55362;SDS011;41244;49.242;9.060;2023-07-28T12:03:06;5.22;;;2.63;;
55362;SDS011;41244;49.242;9.060;2023-07-28T12:05:37;2.70;;;2.50;;
55362;SDS011;41244;49.242;9.060;2023-07-28T12:08:05;4.50;;;3.03;;
55362;SDS011;41244;49.242;9.060;2023-07-28T12:10:32;2.88;;;2.67;;
55362;SDS011;41244;49.242;9.060;2023-07-28T12:13:06;4.28;;;2.80;;
55362;SDS011;41244;49.242;9.060;2023-07-28T12:15:33;5.13;;;3.53;;
55362;SDS011;41244;49.242;9.060;2023-07-28T12:18:07;4.93;;;3.00;;
55362;SDS011;41244;49.242;9.060;2023-07-28T12:20:42;3.88;;;2.95;;
55362;SDS011;41244;49.242;9.060;2023-07-28T12:23:11;4.43;;;3.10;;
55362;SDS011;41244;49.242;9.060;2023-07-28T12:59:32;6.30;;;3.78;;
55362;SDS011;41244;49.242;9.060;2023-07-28T13:01:58;3.95;;;3.38;;
55362;SDS011;41244;49.242;9.060;2023-07-28T13:04:24;7.35;;;3.72;;
55362;SDS011;41244;49.242;9.060;2023-07-28T13:06:49;4.20;;;3.80;;
55362;SDS011;41244;49.242;9.060;2023-07-28T13:09:15;6.47;;;4.00;;
55362;SDS011;41244;49.242;9.060;2023-07-28T13:11:41;4.10;;;3.60;;
55362;SDS011;41244;49.242;9.060;2023-07-28T13:14:07;3.60;;;3.30;;
55362;SDS011;41244;49.242;9.060;2023-07-28T13:16:32;5.18;;;3.63;;
55362;SDS011;41244;49.242;9.060;2023-07-28T13:18:58;3.92;;;3.50;;
55362;SDS011;41244;49.242;9.060;2023-07-28T13:21:24;4.13;;;3.72;;
55362;SDS011;41244;49.242;9.060;2023-07-28T13:23:50;6.45;;;4.05;;
55362;SDS011;41244;49.242;9.060;2023-07-28T13:26:16;4.55;;;3.67;;
55362;SDS011;41244;49.242;9.060;2023-07-28T13:28:42;4.80;;;3.92;;
55362;SDS011;41244;49.242;9.060;2023-07-28T13:31:12;4.15;;;3.75;;
55362;SDS011;41244;49.242;9.060;2023-07-28T13:33:38;4.50;;;4.10;;
55362;SDS011;41244;49.242;9.060;2023-07-28T13:36:04;5.43;;;4.35;;
55362;SDS011;41244;49.242;9.060;2023-07-28T13:38:32;6.63;;;3.90;;
55362;SDS011;41244;49.242;9.060;2023-07-28T13:40:59;4.07;;;3.65;;
55362;SDS011;41244;49.242;9.060;2023-07-28T13:43:24;5.50;;;3.97;;
55362;SDS011;41244;49.242;9.060;2023-07-28T13:45:50;4.65;;;3.78;;
55362;SDS011;41244;49.242;9.060;2023-07-28T13:48:16;5.38;;;3.90;;
55362;SDS011;41244;49.242;9.060;2023-07-28T13:50:42;5.47;;;4.50;;
55362;SDS011;41244;49.242;9.060;2023-07-28T13:53:08;5.45;;;4.60;;
55362;SDS011;41244;49.242;9.060;2023-07-28T13:55:35;4.45;;;4.00;;
55362;SDS011;41244;49.242;9.060;2023-07-28T13:58:00;4.45;;;3.90;;
55362;SDS011;41244;49.242;9.060;2023-07-28T14:00:26;4.35;;;3.85;;
55362;SDS011;41244;49.242;9.060;2023-07-28T14:02:52;4.97;;;4.15;;
55362;SDS011;41244;49.242;9.060;2023-07-28T14:05:18;7.28;;;3.72;;
55362;SDS011;41244;49.242;9.060;2023-07-28T14:07:44;6.70;;;4.15;;
55362;SDS011;41244;49.242;9.060;2023-07-28T14:10:11;4.38;;;3.97;;
55362;SDS011;41244;49.242;9.060;2023-07-28T14:12:37;5.50;;;4.13;;
55362;SDS011;41244;49.242;9.060;2023-07-28T14:15:03;4.30;;;3.90;;
55362;SDS011;41244;49.242;9.060;2023-07-28T14:17:31;5.65;;;3.75;;
55362;SDS011;41244;49.242;9.060;2023-07-28T14:19:57;4.43;;;4.03;;
55362;SDS011;41244;49.242;9.060;2023-07-28T14:22:22;5.65;;;4.10;;
55362;SDS011;41244;49.242;9.060;2023-07-28T14:24:48;4.70;;;4.20;;
55362;SDS011;41244;49.242;9.060;2023-07-28T14:27:15;4.47;;;4.07;;
55362;SDS011;41244;49.242;9.060;2023-07-28T14:29:41;4.20;;;3.80;;
55362;SDS011;41244;49.242;9.060;2023-07-28T14:32:07;5.95;;;4.05;;
55362;SDS011;41244;49.242;9.060;2023-07-28T14:34:33;5.63;;;3.70;;
55362;SDS011;41244;49.242;9.060;2023-07-28T14:37:05;4.28;;;3.88;;
55362;SDS011;41244;49.242;9.060;2023-07-28T14:39:31;5.53;;;3.70;;
55362;SDS011;41244;49.242;9.060;2023-07-28T14:41:57;4.97;;;3.92;;
55362;SDS011;41244;49.242;9.060;2023-07-28T14:44:23;5.35;;;3.85;;
55362;SDS011;41244;49.242;9.060;2023-07-28T14:46:48;4.65;;;3.17;;
55362;SDS011;41244;49.242;9.060;2023-07-28T14:49:14;5.97;;;4.57;;
55362;SDS011;41244;49.242;9.060;2023-07-28T14:51:40;4.72;;;3.90;;
55362;SDS011;41244;49.242;9.060;2023-07-28T14:54:06;5.43;;;3.67;;
55362;SDS011;41244;49.242;9.060;2023-07-28T14:56:31;5.43;;;3.50;;
55362;SDS011;41244;49.242;9.060;2023-07-28T14:58:58;4.10;;;3.70;;
55362;SDS011;41244;49.242;9.060;2023-07-28T15:01:26;3.65;;;3.22;;
55362;SDS011;41244;49.242;9.060;2023-07-28T15:03:52;5.00;;;3.35;;
55362;SDS011;41244;49.242;9.060;2023-07-28T15:06:17;4.38;;;3.70;;
55362;SDS011;41244;49.242;9.060;2023-07-28T15:08:43;6.55;;;4.30;;
55362;SDS011;41244;49.242;9.060;2023-07-28T15:11:09;4.63;;;3.42;;
55362;SDS011;41244;49.242;9.060;2023-07-28T15:13:35;3.95;;;3.53;;
55362;SDS011;41244;49.242;9.060;2023-07-28T15:16:01;5.45;;;3.70;;
55362;SDS011;41244;49.242;9.060;2023-07-28T15:18:26;3.97;;;3.58;;
55362;SDS011;41244;49.242;9.060;2023-07-28T15:20:52;3.55;;;3.17;;
55362;SDS011;41244;49.242;9.060;2023-07-28T15:23:21;3.85;;;3.35;;
55362;SDS011;41244;49.242;9.060;2023-07-28T15:25:49;3.78;;;3.17;;
55362;SDS011;41244;49.242;9.060;2023-07-28T15:28:17;5.18;;;2.90;;
55362;SDS011;41244;49.242;9.060;2023-07-28T15:30:43;3.33;;;3.00;;
55362;SDS011;41244;49.242;9.060;2023-07-28T15:33:11;4.45;;;3.00;;
55362;SDS011;41244;49.242;9.060;2023-07-28T15:35:37;5.38;;;3.40;;
55362;SDS011;41244;49.242;9.060;2023-07-28T15:38:03;4.97;;;3.45;;